Time;durP1;ratioP1;P1;durP2;ratioP2;P2;SDS_P1;SDS_P2;PMS_P1;PMS_P2;Temp;Humidity;BMP_temperature;BMP_pressure;BME280_temperature;BME280_humidity;BME280_pressure;Samples;Min_cycle;Max_cycle;Signal;HPM_P1;HPM_P2
2021/12/28 00:00:21;;;;;;;30.85;28.17;;;;;;;;;;4955055;29;20194;-88
2021/12/28 00:02:49;;;;;;;29.30;27.00;;;;;;;;;;4955097;29;20217;-88
2021/12/28 00:05:17;;;;;;;28.42;26.00;;;;;;;;;;4954753;29;20207;-87
2021/12/28 00:07:45;;;;;;;29.38;26.90;;;;;;;;;;4955038;29;20205;-88
2021/12/28 00:10:15;;;;;;;28.25;26.05;;;;;;;;;;4954900;29;20223;-88
2021/12/28 00:12:43;;;;;;;23.13;21.45;;;;;;;;;;4954907;29;20199;-88
2021/12/28 00:15:30;;;;;;;28.60;26.33;;;;;;;;;;4954536;29;20201;-88
2021/12/28 00:18:02;;;;;;;27.40;25.20;;;;;;;;;;4923446;29;20242;-88
2021/12/28 00:20:31;;;;;;;29.20;27.00;;;;;;;;;;4935596;29;20217;-88
2021/12/28 00:22:59;;;;;;;28.55;26.40;;;;;;;;;;4935564;29;20206;-88
2021/12/28 00:25:28;;;;;;;29.38;27.00;;;;;;;;;;4918350;29;20258;-89
2021/12/28 00:27:55;;;;;;;28.27;26.07;;;;;;;;;;4938026;29;20198;-88
2021/12/28 00:30:23;;;;;;;25.25;23.30;;;;;;;;;;4939199;29;20449;-88
2021/12/28 00:32:53;;;;;;;29.35;26.98;;;;;;;;;;4939267;29;20193;-88
2021/12/28 00:35:21;;;;;;;27.10;25.10;;;;;;;;;;4939236;29;20207;-87
2021/12/28 00:37:49;;;;;;;27.38;25.38;;;;;;;;;;4939109;29;20199;-88
2021/12/28 00:40:16;;;;;;;25.90;23.90;;;;;;;;;;4939122;29;20206;-89
2021/12/28 00:42:45;;;;;;;25.70;23.80;;;;;;;;;;4922043;29;20207;-89
2021/12/28 00:45:12;;;;;;;26.88;24.88;;;;;;;;;;4938972;29;20257;-88
2021/12/28 00:47:40;;;;;;;26.70;24.60;;;;;;;;;;4939032;29;20188;-88
2021/12/28 00:50:09;;;;;;;27.30;25.30;;;;;;;;;;4938574;29;20236;-88
2021/12/28 00:52:36;;;;;;;27.50;25.30;;;;;;;;;;4939122;29;20916;-88
2021/12/28 00:55:04;;;;;;;29.40;26.95;;;;;;;;;;4938516;29;20194;-88
2021/12/28 00:57:31;;;;;;;27.45;25.45;;;;;;;;;;4938698;29;20251;-88
2021/12/28 01:00:00;;;;;;;27.48;25.20;;;;;;;;;;4938853;29;20203;-88
2021/12/28 01:02:27;;;;;;;27.58;25.48;;;;;;;;;;4938722;29;20214;-89
2021/12/28 01:04:55;;;;;;;24.35;22.55;;;;;;;;;;4921782;29;20607;-89
2021/12/28 01:07:22;;;;;;;26.70;24.70;;;;;;;;;;4938722;29;20202;-89
2021/12/28 01:09:50;;;;;;;28.38;26.25;;;;;;;;;;4938347;29;20209;-89
2021/12/28 01:12:17;;;;;;;26.55;24.55;;;;;;;;;;4938664;29;20224;-90
2021/12/28 01:14:45;;;;;;;26.20;24.13;;;;;;;;;;4938695;29;20209;-89
2021/12/28 01:17:13;;;;;;;27.42;25.35;;;;;;;;;;4946125;28;20240;-89
2021/12/28 01:19:42;;;;;;;24.92;23.10;;;;;;;;;;4957226;29;20224;-90
2021/12/28 01:22:09;;;;;;;25.55;23.45;;;;;;;;;;4957274;29;20192;-89
2021/12/28 01:24:36;;;;;;;25.50;23.70;;;;;;;;;;4957468;29;20207;-90
2021/12/28 01:27:04;;;;;;;25.38;23.50;;;;;;;;;;4957381;29;20197;-89
2021/12/28 01:29:32;;;;;;;26.90;24.98;;;;;;;;;;4957510;29;20205;-89
2021/12/28 01:32:00;;;;;;;26.70;24.70;;;;;;;;;;4956711;29;20573;-89
2021/12/28 01:34:29;;;;;;;27.05;24.90;;;;;;;;;;4957020;29;20206;-90
2021/12/28 01:36:56;;;;;;;24.85;23.05;;;;;;;;;;4957511;29;20190;-89
2021/12/28 01:39:24;;;;;;;25.08;23.15;;;;;;;;;;4957136;28;20210;-90
2021/12/28 01:41:51;;;;;;;25.20;23.50;;;;;;;;;;4956992;29;20295;-90
2021/12/28 01:44:18;;;;;;;26.70;24.73;;;;;;;;;;4956794;29;20194;-90
2021/12/28 01:46:46;;;;;;;25.00;23.13;;;;;;;;;;4957340;29;20441;-89
2021/12/28 01:49:13;;;;;;;26.45;24.45;;;;;;;;;;4957122;29;20568;-90
2021/12/28 01:51:42;;;;;;;24.98;23.10;;;;;;;;;;4940111;29;20238;-89
2021/12/28 01:54:10;;;;;;;24.90;23.20;;;;;;;;;;4956405;29;20196;-88
2021/12/28 01:56:38;;;;;;;24.38;22.65;;;;;;;;;;4956940;29;20199;-90
2021/12/28 01:59:06;;;;;;;25.75;23.88;;;;;;;;;;4956655;29;20230;-89
2021/12/28 02:01:35;;;;;;;25.25;23.45;;;;;;;;;;4956506;29;20241;-90
2021/12/28 02:04:02;;;;;;;25.57;23.83;;;;;;;;;;4956434;29;20204;-89
2021/12/28 02:06:29;;;;;;;25.40;23.60;;;;;;;;;;4956766;29;20443;-89
2021/12/28 02:08:59;;;;;;;24.55;22.75;;;;;;;;;;4956778;29;20195;-90
2021/12/28 02:11:26;;;;;;;24.92;23.33;;;;;;;;;;4956560;29;20225;-89
2021/12/28 02:13:53;;;;;;;24.63;23.02;;;;;;;;;;4956226;29;20220;-89
2021/12/28 02:16:21;;;;;;;24.03;22.47;;;;;;;;;;4956534;29;20189;-90
2021/12/28 02:18:48;;;;;;;25.05;23.35;;;;;;;;;;4956366;29;20835;-89
2021/12/28 02:21:17;;;;;;;25.50;23.70;;;;;;;;;;4956140;29;20213;-89
2021/12/28 02:23:44;;;;;;;23.02;21.52;;;;;;;;;;4956279;29;20197;-89
2021/12/28 02:26:11;;;;;;;23.17;21.75;;;;;;;;;;4956388;29;20538;-90
2021/12/28 02:28:39;;;;;;;23.95;22.35;;;;;;;;;;4939061;29;20263;-89
2021/12/28 02:31:07;;;;;;;23.85;22.25;;;;;;;;;;4938937;29;20226;-89
2021/12/28 02:33:36;;;;;;;23.55;21.95;;;;;;;;;;4938922;29;20208;-90
2021/12/28 02:36:04;;;;;;;23.30;21.80;;;;;;;;;;4956195;29;20251;-88
2021/12/28 02:38:34;;;;;;;24.33;22.83;;;;;;;;;;4956288;29;20197;-89
2021/12/28 02:41:02;;;;;;;23.63;22.00;;;;;;;;;;4956171;29;20262;-89
2021/12/28 02:43:29;;;;;;;23.05;21.48;;;;;;;;;;4956216;29;20195;-89
2021/12/28 02:45:58;;;;;;;23.30;21.80;;;;;;;;;;4956160;29;20197;-89
2021/12/28 02:48:26;;;;;;;22.40;20.98;;;;;;;;;;4955637;29;20477;-89
2021/12/28 02:50:55;;;;;;;22.67;21.17;;;;;;;;;;4955233;28;20203;-88
2021/12/28 02:53:24;;;;;;;22.98;21.48;;;;;;;;;;4955805;29;20198;-89
2021/12/28 02:55:53;;;;;;;23.25;21.85;;;;;;;;;;4955894;29;20194;-89
2021/12/28 02:58:28;;;;;;;23.83;22.30;;;;;;;;;;4955363;29;20213;-89
2021/12/28 03:00:57;;;;;;;23.63;22.02;;;;;;;;;;4955313;29;20218;-89
2021/12/28 03:03:27;;;;;;;23.52;22.02;;;;;;;;;;4955574;29;20239;-89
2021/12/28 03:05:56;;;;;;;23.55;22.05;;;;;;;;;;4955837;29;20278;-89
2021/12/28 03:08:24;;;;;;;24.85;23.00;;;;;;;;;;4955372;29;20303;-89
2021/12/28 03:10:54;;;;;;;24.25;22.60;;;;;;;;;;4955403;29;20197;-89
2021/12/28 03:13:24;;;;;;;23.10;21.52;;;;;;;;;;4955600;29;20234;-88
2021/12/28 03:15:52;;;;;;;22.63;21.23;;;;;;;;;;4955522;29;20662;-89
2021/12/28 03:18:20;;;;;;;22.95;21.48;;;;;;;;;;4954891;28;20245;-89
2021/12/28 03:20:47;;;;;;;23.25;21.75;;;;;;;;;;4955483;29;20651;-89
2021/12/28 03:23:15;;;;;;;23.60;22.10;;;;;;;;;;4922286;29;20264;-89
2021/12/28 03:25:42;;;;;;;23.80;22.17;;;;;;;;;;4955303;29;20192;-89
2021/12/28 03:28:16;;;;;;;23.65;21.88;;;;;;;;;;4955543;29;20203;-89
2021/12/28 03:30:44;;;;;;;23.90;22.30;;;;;;;;;;4955411;29;20199;-89
2021/12/28 03:33:12;;;;;;;23.58;22.05;;;;;;;;;;4954860;29;20220;-87
2021/12/28 03:35:39;;;;;;;24.20;22.55;;;;;;;;;;4955306;29;20192;-89
2021/12/28 03:38:07;;;;;;;23.50;21.98;;;;;;;;;;4955366;29;20668;-89
2021/12/28 03:40:34;;;;;;;23.48;22.08;;;;;;;;;;4954889;29;20214;-88
2021/12/28 03:43:02;;;;;;;23.80;22.30;;;;;;;;;;4954968;29;20213;-89
2021/12/28 03:45:31;;;;;;;24.30;22.65;;;;;;;;;;4955445;29;20223;-89
2021/12/28 03:47:58;;;;;;;22.40;21.00;;;;;;;;;;4955023;29;20538;-89
2021/12/28 03:50:26;;;;;;;24.20;22.58;;;;;;;;;;4955081;29;20194;-88
2021/12/28 03:52:54;;;;;;;24.15;22.67;;;;;;;;;;4954930;29;20249;-89
2021/12/28 03:55:22;;;;;;;23.65;21.95;;;;;;;;;;4955103;29;20222;-89
2021/12/28 03:57:50;;;;;;;23.88;22.27;;;;;;;;;;4954977;29;20191;-89
2021/12/28 04:00:18;;;;;;;24.17;22.67;;;;;;;;;;4954891;28;20700;-88
2021/12/28 04:02:47;;;;;;;24.73;23.05;;;;;;;;;;4958678;29;20193;-89
2021/12/28 04:05:16;;;;;;;23.58;22.17;;;;;;;;;;4958934;29;20263;-89
2021/12/28 04:07:44;;;;;;;22.92;21.52;;;;;;;;;;4941669;29;20209;-89
2021/12/28 04:10:11;;;;;;;23.63;21.95;;;;;;;;;;4941601;29;20240;-89
2021/12/28 04:12:39;;;;;;;24.10;22.40;;;;;;;;;;4958516;29;20241;-89
2021/12/28 04:15:08;;;;;;;23.88;22.48;;;;;;;;;;4941466;29;20314;-89
2021/12/28 04:17:37;;;;;;;22.05;20.77;;;;;;;;;;4958329;28;20242;-89
2021/12/28 04:20:08;;;;;;;22.80;21.35;;;;;;;;;;4958532;29;20218;-88
2021/12/28 04:22:35;;;;;;;23.08;21.52;;;;;;;;;;4958640;29;20200;-89
2021/12/28 04:25:02;;;;;;;22.60;21.20;;;;;;;;;;4958744;29;20195;-89
2021/12/28 04:27:30;;;;;;;23.15;21.65;;;;;;;;;;4941272;29;20647;-88
2021/12/28 04:29:57;;;;;;;23.52;21.67;;;;;;;;;;4958365;29;20194;-88
2021/12/28 04:32:24;;;;;;;22.52;21.13;;;;;;;;;;4958342;29;20229;-89
2021/12/28 04:34:52;;;;;;;22.13;20.73;;;;;;;;;;4958458;29;20205;-88
2021/12/28 04:37:21;;;;;;;23.63;22.15;;;;;;;;;;4958350;29;20618;-89
2021/12/28 04:39:48;;;;;;;23.13;21.52;;;;;;;;;;4958325;29;20204;-89
2021/12/28 04:42:16;;;;;;;23.00;21.33;;;;;;;;;;4957728;29;20209;-89
2021/12/28 04:44:43;;;;;;;23.42;21.92;;;;;;;;;;4957949;29;20786;-89
2021/12/28 04:47:10;;;;;;;23.85;22.25;;;;;;;;;;4958296;29;20197;-90
2021/12/28 04:49:38;;;;;;;22.50;21.10;;;;;;;;;;4958204;29;20216;-89
2021/12/28 04:52:05;;;;;;;21.65;20.35;;;;;;;;;;4957924;29;20236;-88
2021/12/28 04:54:36;;;;;;;22.10;20.77;;;;;;;;;;4940684;29;20202;-89
2021/12/28 04:57:04;;;;;;;21.75;20.15;;;;;;;;;;4958054;29;20634;-88
2021/12/28 04:59:31;;;;;;;22.30;20.70;;;;;;;;;;4958450;29;20207;-89
2021/12/28 05:01:59;;;;;;;22.20;20.70;;;;;;;;;;4958128;29;20543;-88
2021/12/28 05:04:26;;;;;;;22.90;21.33;;;;;;;;;;4957690;29;20587;-84
2021/12/28 05:06:53;;;;;;;24.17;21.98;;;;;;;;;;4957794;29;20207;-86
2021/12/28 05:09:21;;;;;;;22.48;20.73;;;;;;;;;;4957540;29;20298;-87
2021/12/28 05:11:50;;;;;;;22.33;20.83;;;;;;;;;;4957353;29;20225;-86
2021/12/28 05:14:18;;;;;;;22.35;20.83;;;;;;;;;;4956829;29;20193;-86
2021/12/28 05:16:46;;;;;;;22.13;20.45;;;;;;;;;;4957176;28;20250;-85
2021/12/28 05:19:14;;;;;;;22.33;20.92;;;;;;;;;;4957236;29;20221;-86
2021/12/28 05:21:42;;;;;;;21.13;19.65;;;;;;;;;;4956967;29;20212;-86
2021/12/28 05:24:09;;;;;;;22.10;20.52;;;;;;;;;;4957293;29;20198;-86
2021/12/28 05:26:37;;;;;;;22.90;20.95;;;;;;;;;;4957129;29;20202;-86
2021/12/28 05:29:05;;;;;;;22.15;20.45;;;;;;;;;;4957025;29;20268;-86
2021/12/28 05:31:33;;;;;;;22.88;20.88;;;;;;;;;;4957179;29;20201;-86
2021/12/28 05:34:00;;;;;;;21.08;19.67;;;;;;;;;;4957017;29;20583;-86
2021/12/28 05:36:28;;;;;;;22.27;20.48;;;;;;;;;;4940201;29;20200;-86
2021/12/28 05:38:55;;;;;;;21.60;19.55;;;;;;;;;;4957332;29;20201;-86
2021/12/28 05:41:22;;;;;;;21.27;19.80;;;;;;;;;;4957039;29;20197;-87
2021/12/28 05:43:50;;;;;;;21.48;19.50;;;;;;;;;;4956242;29;20194;-86
2021/12/28 05:46:19;;;;;;;19.45;16.67;;;;;;;;;;4957080;29;20259;-87
2021/12/28 05:48:47;;;;;;;17.58;15.77;;;;;;;;;;4957012;29;20195;-86
2021/12/28 05:51:14;;;;;;;17.13;15.40;;;;;;;;;;4956753;29;20212;-86
2021/12/28 05:53:42;;;;;;;20.02;16.80;;;;;;;;;;4956226;29;20321;-87
2021/12/28 05:56:09;;;;;;;20.10;17.70;;;;;;;;;;4956505;29;20644;-86
2021/12/28 05:58:37;;;;;;;18.13;16.20;;;;;;;;;;4956424;29;20707;-86
2021/12/28 06:01:04;;;;;;;20.90;18.83;;;;;;;;;;4956320;29;20205;-86
2021/12/28 06:03:33;;;;;;;24.93;23.07;;;;;;;;;;4956639;29;20198;-87
2021/12/28 06:06:01;;;;;;;29.60;26.80;;;;;;;;;;4956499;29;20463;-86
2021/12/28 06:08:28;;;;;;;23.05;21.20;;;;;;;;;;4956321;29;20209;-86
2021/12/28 06:10:55;;;;;;;25.30;22.90;;;;;;;;;;4956254;29;20212;-85
2021/12/28 06:13:23;;;;;;;22.95;20.85;;;;;;;;;;4956076;29;20483;-86
2021/12/28 06:15:51;;;;;;;23.13;21.40;;;;;;;;;;4956355;29;20201;-86
2021/12/28 06:18:18;;;;;;;23.05;21.05;;;;;;;;;;4938750;29;20243;-86
2021/12/28 06:20:47;;;;;;;22.35;20.73;;;;;;;;;;4956020;29;20267;-86
2021/12/28 06:23:14;;;;;;;22.13;20.38;;;;;;;;;;4956025;29;20659;-87
2021/12/28 06:25:42;;;;;;;22.63;20.77;;;;;;;;;;4955005;28;20192;-85
2021/12/28 06:28:09;;;;;;;22.00;20.40;;;;;;;;;;4955626;29;20568;-86
2021/12/28 06:30:37;;;;;;;23.58;21.35;;;;;;;;;;4956189;29;20207;-86
2021/12/28 06:33:04;;;;;;;23.48;21.58;;;;;;;;;;4955878;29;20230;-86
2021/12/28 06:35:32;;;;;;;23.40;21.50;;;;;;;;;;4955925;29;20198;-86
2021/12/28 06:38:01;;;;;;;22.00;20.35;;;;;;;;;;4955912;29;20522;-86
2021/12/28 06:40:28;;;;;;;22.60;20.90;;;;;;;;;;4955536;29;20202;-86
2021/12/28 06:42:56;;;;;;;21.77;20.23;;;;;;;;;;4955524;29;20198;-86
2021/12/28 06:45:23;;;;;;;23.75;21.65;;;;;;;;;;4955764;29;20217;-86
2021/12/28 06:47:51;;;;;;;35.33;30.03;;;;;;;;;;4955529;29;20623;-86
2021/12/28 06:50:18;;;;;;;24.27;22.27;;;;;;;;;;4938553;29;20425;-86
2021/12/28 06:52:46;;;;;;;23.67;21.65;;;;;;;;;;4955552;29;20215;-86
2021/12/28 06:55:14;;;;;;;24.08;21.90;;;;;;;;;;4955736;29;20212;-86
2021/12/28 06:57:42;;;;;;;23.70;21.45;;;;;;;;;;4955515;29;20206;-87
2021/12/28 07:00:11;;;;;;;20.08;18.73;;;;;;;;;;4955459;29;20623;-87
2021/12/28 07:02:38;;;;;;;22.83;21.00;;;;;;;;;;4955774;29;20202;-87
2021/12/28 07:05:06;;;;;;;23.77;21.77;;;;;;;;;;4955202;29;20425;-86
2021/12/28 07:07:34;;;;;;;23.67;21.92;;;;;;;;;;4955772;29;20194;-86
2021/12/28 07:10:01;;;;;;;24.95;22.52;;;;;;;;;;4955159;29;20672;-86
2021/12/28 07:12:30;;;;;;;23.08;21.35;;;;;;;;;;4955092;29;20221;-86
2021/12/28 07:14:57;;;;;;;23.67;21.60;;;;;;;;;;4955334;29;20195;-86
2021/12/28 07:17:26;;;;;;;23.23;21.50;;;;;;;;;;4955125;29;20653;-85
2021/12/28 07:19:54;;;;;;;26.33;23.63;;;;;;;;;;4955253;29;20556;-85
2021/12/28 07:22:21;;;;;;;24.10;22.08;;;;;;;;;;4955078;29;20481;-86
2021/12/28 07:24:49;;;;;;;24.95;22.00;;;;;;;;;;4938306;29;20539;-86
2021/12/28 07:27:16;;;;;;;25.40;23.03;;;;;;;;;;4954922;29;20205;-86
2021/12/28 07:29:45;;;;;;;24.92;22.73;;;;;;;;;;4955172;29;20940;-85
2021/12/28 07:32:12;;;;;;;25.42;23.13;;;;;;;;;;4954796;29;20692;-86
2021/12/28 07:34:39;;;;;;;25.23;23.23;;;;;;;;;;4954968;29;20243;-86
2021/12/28 07:37:07;;;;;;;25.03;22.83;;;;;;;;;;4954121;28;20198;-84
2021/12/28 07:39:34;;;;;;;26.23;23.67;;;;;;;;;;4954197;29;20456;-84
2021/12/28 07:42:02;;;;;;;24.67;22.45;;;;;;;;;;4954135;29;20202;-82
2021/12/28 07:44:29;;;;;;;26.08;23.67;;;;;;;;;;4937442;29;20197;-84
2021/12/28 07:46:58;;;;;;;26.60;24.30;;;;;;;;;;4954745;29;20198;-85
2021/12/28 07:49:26;;;;;;;24.20;22.27;;;;;;;;;;4937026;29;20460;-84
2021/12/28 07:51:53;;;;;;;25.17;23.13;;;;;;;;;;4954416;29;20196;-84
2021/12/28 07:54:20;;;;;;;26.35;23.88;;;;;;;;;;4953879;29;20686;-84
2021/12/28 07:56:48;;;;;;;26.15;23.08;;;;;;;;;;4954565;29;20209;-83
2021/12/28 07:59:16;;;;;;;26.70;24.02;;;;;;;;;;4953985;29;20670;-83
2021/12/28 08:01:43;;;;;;;26.15;23.77;;;;;;;;;;4953927;29;20194;-83
2021/12/28 08:04:12;;;;;;;25.83;23.42;;;;;;;;;;4954411;29;20209;-90
2021/12/28 08:06:39;;;;;;;29.60;23.77;;;;;;;;;;4937581;29;20214;-87
2021/12/28 08:09:06;;;;;;;25.63;23.40;;;;;;;;;;4954754;29;20687;-88
2021/12/28 08:11:35;;;;;;;26.90;24.30;;;;;;;;;;4954824;29;20210;-87
2021/12/28 08:14:02;;;;;;;21.95;20.10;;;;;;;;;;4954579;29;20237;-87
2021/12/28 08:16:30;;;;;;;23.48;21.75;;;;;;;;;;4954312;29;20199;-87
2021/12/28 08:18:58;;;;;;;22.17;20.77;;;;;;;;;;4954462;29;20688;-86
2021/12/28 08:21:28;;;;;;;27.00;24.98;;;;;;;;;;4954781;29;20203;-89
2021/12/28 08:23:55;;;;;;;30.38;27.52;;;;;;;;;;4954556;29;20213;-89
2021/12/28 08:26:22;;;;;;;27.63;25.27;;;;;;;;;;4954557;29;20202;-84
2021/12/28 08:28:50;;;;;;;26.52;24.33;;;;;;;;;;4953656;29;20585;-85
2021/12/28 08:31:17;;;;;;;27.63;24.98;;;;;;;;;;4936554;29;20670;-86
2021/12/28 08:33:45;;;;;;;24.98;22.95;;;;;;;;;;4954442;29;20221;-86
2021/12/28 08:36:12;;;;;;;23.80;21.98;;;;;;;;;;4954508;29;20205;-86
2021/12/28 08:38:43;;;;;;;25.23;22.98;;;;;;;;;;4954183;29;20229;-86
2021/12/28 08:41:10;;;;;;;23.25;21.52;;;;;;;;;;4954053;29;20230;-87
2021/12/28 08:43:38;;;;;;;28.60;26.02;;;;;;;;;;4954072;29;20193;-86
2021/12/28 08:46:05;;;;;;;25.90;23.70;;;;;;;;;;4953954;29;20195;-85
2021/12/28 08:48:33;;;;;;;25.85;23.52;;;;;;;;;;4955676;28;20211;-84
2021/12/28 08:51:01;;;;;;;24.05;22.42;;;;;;;;;;4957629;29;20227;-89
2021/12/28 08:53:28;;;;;;;25.05;23.27;;;;;;;;;;4952597;29;20249;-83
2021/12/28 08:55:57;;;;;;;24.60;22.23;;;;;;;;;;4939423;29;20245;-90
2021/12/28 08:58:25;;;;;;;25.73;23.85;;;;;;;;;;4922163;29;20420;-85
2021/12/28 09:00:52;;;;;;;25.33;22.87;;;;;;;;;;4939229;29;20293;-82
2021/12/28 09:03:19;;;;;;;26.30;23.88;;;;;;;;;;4939509;29;20463;-94
2021/12/28 09:05:47;;;;;;;24.50;22.50;;;;;;;;;;4939645;29;20207;-94
2021/12/28 09:08:17;;;;;;;24.85;22.52;;;;;;;;;;4939197;29;20256;-94
2021/12/28 09:10:45;;;;;;;23.87;22.17;;;;;;;;;;4939230;29;20556;-94
2021/12/28 09:13:14;;;;;;;24.73;22.58;;;;;;;;;;4939323;29;20492;-94
2021/12/28 09:15:42;;;;;;;22.30;21.00;;;;;;;;;;4939314;29;20192;-94
2021/12/28 09:18:09;;;;;;;21.20;19.98;;;;;;;;;;4938401;29;20236;-94
2021/12/28 09:20:37;;;;;;;23.13;21.07;;;;;;;;;;4939040;29;20215;-95
2021/12/28 09:23:04;;;;;;;20.77;19.33;;;;;;;;;;4938685;29;20421;-94
2021/12/28 09:25:31;;;;;;;21.80;20.23;;;;;;;;;;4938968;29;20217;-94
2021/12/28 09:27:59;;;;;;;22.58;20.92;;;;;;;;;;4938701;29;20461;-94
2021/12/28 09:30:28;;;;;;;21.05;19.60;;;;;;;;;;4939321;29;20200;-95
2021/12/28 09:32:55;;;;;;;20.17;19.00;;;;;;;;;;4938435;29;20203;-94
2021/12/28 09:35:23;;;;;;;21.15;19.88;;;;;;;;;;4938453;29;20463;-93
2021/12/28 09:37:50;;;;;;;19.70;18.48;;;;;;;;;;4938921;29;20215;-93
2021/12/28 09:40:18;;;;;;;24.00;22.33;;;;;;;;;;4921834;29;20681;-93
2021/12/28 09:42:46;;;;;;;21.65;20.35;;;;;;;;;;4938745;29;20445;-93
2021/12/28 09:45:14;;;;;;;20.50;18.92;;;;;;;;;;4938606;29;20207;-92
2021/12/28 09:47:44;;;;;;;23.95;22.23;;;;;;;;;;4938480;29;20207;-94
2021/12/28 09:50:14;;;;;;;18.40;17.50;;;;;;;;;;4921330;29;20918;-94
2021/12/28 09:52:42;;;;;;;21.13;19.90;;;;;;;;;;4938876;29;20192;-93
2021/12/28 09:55:10;;;;;;;22.23;20.60;;;;;;;;;;4938421;29;20499;-93
2021/12/28 09:57:38;;;;;;;22.40;20.98;;;;;;;;;;4938303;29;20472;-93
2021/12/28 10:00:07;;;;;;;21.50;20.15;;;;;;;;;;4937972;29;20215;-93
2021/12/28 10:02:35;;;;;;;20.83;19.40;;;;;;;;;;4938511;29;20238;-94
2021/12/28 10:05:07;;;;;;;21.00;19.77;;;;;;;;;;4938322;29;20426;-94
2021/12/28 10:07:38;;;;;;;21.58;20.38;;;;;;;;;;4938183;29;20436;-94
2021/12/28 10:10:06;;;;;;;21.93;20.40;;;;;;;;;;4938563;29;20200;-93
2021/12/28 10:12:35;;;;;;;21.53;20.00;;;;;;;;;;4938085;29;20422;-94
2021/12/28 10:15:05;;;;;;;21.03;19.50;;;;;;;;;;4937705;29;20493;-93
2021/12/28 10:17:33;;;;;;;21.60;20.13;;;;;;;;;;4937706;29;20475;-94
2021/12/28 10:20:01;;;;;;;20.87;19.77;;;;;;;;;;4937882;29;20214;-93
2021/12/28 10:22:35;;;;;;;20.70;19.60;;;;;;;;;;4937655;29;20945;-95
2021/12/28 10:25:06;;;;;;;20.80;19.43;;;;;;;;;;4937757;29;20433;-92
2021/12/28 10:27:33;;;;;;;21.10;19.60;;;;;;;;;;4937663;29;20462;-94
2021/12/28 10:30:09;;;;;;;20.60;19.20;;;;;;;;;;4920936;29;20206;-93
2021/12/28 10:32:38;;;;;;;20.90;19.63;;;;;;;;;;4937706;29;20451;-93
2021/12/28 10:35:06;;;;;;;21.73;20.00;;;;;;;;;;4937523;29;20590;-94
2021/12/28 10:37:36;;;;;;;19.30;18.20;;;;;;;;;;4937605;29;20198;-94
2021/12/28 10:40:05;;;;;;;21.73;20.47;;;;;;;;;;4937542;29;20847;-94
2021/12/28 10:42:44;;;;;;;21.20;19.90;;;;;;;;;;4937345;29;20458;-93
2021/12/28 10:45:12;;;;;;;22.80;21.40;;;;;;;;;;4937476;29;20438;-94
2021/12/28 10:47:40;;;;;;;21.90;20.70;;;;;;;;;;4937605;29;20444;-95
2021/12/28 10:50:22;;;;;;;21.70;20.20;;;;;;;;;;4937490;29;21067;-93
2021/12/28 10:52:59;;;;;;;21.93;20.30;;;;;;;;;;4934354;29;20426;-94
2021/12/28 10:55:27;;;;;;;18.90;17.83;;;;;;;;;;4937100;29;20495;-94
2021/12/28 10:57:55;;;;;;;19.47;18.57;;;;;;;;;;4937220;29;20430;-94
2021/12/28 11:00:25;;;;;;;20.83;19.63;;;;;;;;;;4937296;29;20464;-94
2021/12/28 11:02:53;;;;;;;18.50;17.50;;;;;;;;;;4937260;29;20438;-94
2021/12/28 11:05:35;;;;;;;20.27;18.63;;;;;;;;;;4936918;29;20880;-93
2021/12/28 11:08:04;;;;;;;19.10;18.10;;;;;;;;;;4937166;29;20476;-94
2021/12/28 11:10:31;;;;;;;19.27;18.20;;;;;;;;;;4937543;29;20450;-93
2021/12/28 11:12:59;;;;;;;19.40;18.30;;;;;;;;;;4936998;29;20470;-92
2021/12/28 11:15:26;;;;;;;18.83;17.87;;;;;;;;;;4936933;29;20486;-93
2021/12/28 11:17:54;;;;;;;19.10;18.10;;;;;;;;;;4916950;29;20567;-92
2021/12/28 11:20:30;;;;;;;18.80;17.70;;;;;;;;;;4918385;29;20434;-87
2021/12/28 11:23:12;;;;;;;19.20;18.20;;;;;;;;;;4917802;29;20427;-90
2021/12/28 11:25:39;;;;;;;17.83;17.00;;;;;;;;;;4917519;29;20455;-90
2021/12/28 11:28:14;;;;;;;19.37;18.37;;;;;;;;;;4917740;29;20430;-91
2021/12/28 11:30:41;;;;;;;18.47;17.47;;;;;;;;;;4917874;29;20439;-91
2021/12/28 11:33:12;;;;;;;18.10;17.20;;;;;;;;;;4918125;29;20443;-94
2021/12/28 11:35:39;;;;;;;19.03;18.13;;;;;;;;;;4923044;29;20481;-90
2021/12/28 11:38:07;;;;;;;19.20;17.73;;;;;;;;;;4937064;29;20422;-88
2021/12/28 11:40:36;;;;;;;19.97;18.50;;;;;;;;;;4936932;29;20475;-88
2021/12/28 11:43:03;;;;;;;18.40;17.50;;;;;;;;;;4936745;29;20557;-92
2021/12/28 11:45:31;;;;;;;18.67;17.77;;;;;;;;;;4936458;29;20415;-88
2021/12/28 11:48:00;;;;;;;18.57;17.67;;;;;;;;;;4936477;29;20827;-90
2021/12/28 11:50:27;;;;;;;18.60;17.70;;;;;;;;;;4937096;29;20818;-93
2021/12/28 11:52:54;;;;;;;18.37;17.47;;;;;;;;;;4936687;29;20938;-91
2021/12/28 11:55:22;;;;;;;18.23;17.33;;;;;;;;;;4936447;29;20983;-92
2021/12/28 11:57:54;;;;;;;18.37;17.47;;;;;;;;;;4936270;29;20478;-92
2021/12/28 12:00:22;;;;;;;17.77;16.97;;;;;;;;;;4936443;29;20445;-92
2021/12/28 12:02:51;;;;;;;19.10;18.10;;;;;;;;;;4920075;29;20487;-95
2021/12/28 12:05:19;;;;;;;17.77;16.87;;;;;;;;;;4936627;29;20473;-89
2021/12/28 12:07:48;;;;;;;17.63;16.70;;;;;;;;;;4936551;29;20426;-93
2021/12/28 12:10:19;;;;;;;17.40;16.50;;;;;;;;;;4936373;29;20423;-86
2021/12/28 12:12:53;;;;;;;17.43;16.53;;;;;;;;;;4936228;29;20472;-86
2021/12/28 12:15:23;;;;;;;17.10;16.30;;;;;;;;;;4936007;29;20561;-86
2021/12/28 12:17:50;;;;;;;18.17;17.37;;;;;;;;;;4931613;29;20477;-86
2021/12/28 12:20:30;;;;;;;18.13;17.20;;;;;;;;;;4938289;29;20455;-85
2021/12/28 12:23:09;;;;;;;22.13;20.83;;;;;;;;;;4953722;28;20437;-86
2021/12/28 12:25:47;;;;;;;18.37;17.47;;;;;;;;;;4959037;29;20445;-85
2021/12/28 12:28:14;;;;;;;18.27;17.37;;;;;;;;;;4958896;29;20840;-86
2021/12/28 12:30:57;;;;;;;17.60;16.57;;;;;;;;;;4959152;29;20510;-88
2021/12/28 12:33:25;;;;;;;17.10;16.30;;;;;;;;;;4957422;29;20995;-87
2021/12/28 12:35:54;;;;;;;17.73;16.83;;;;;;;;;;4958798;29;20896;-84
2021/12/28 12:38:36;;;;;;;18.10;17.23;;;;;;;;;;4958384;29;20474;-91
2021/12/28 12:41:06;;;;;;;17.90;17.10;;;;;;;;;;4958638;29;20943;-91
2021/12/28 12:43:41;;;;;;;17.53;16.73;;;;;;;;;;4959058;29;20797;-91
2021/12/28 12:46:11;;;;;;;18.07;17.07;;;;;;;;;;4958734;29;20434;-89
2021/12/28 12:49:01;;;;;;;17.63;16.83;;;;;;;;;;4958622;29;20442;-87
2021/12/28 12:51:29;;;;;;;17.10;16.30;;;;;;;;;;4958764;29;20446;-90
2021/12/28 12:53:59;;;;;;;17.70;16.80;;;;;;;;;;4944598;29;20420;-90
2021/12/28 12:56:27;;;;;;;17.43;16.40;;;;;;;;;;4959984;29;20502;-90
2021/12/28 12:58:56;;;;;;;19.07;18.17;;;;;;;;;;4959343;29;20457;-92
2021/12/28 13:01:36;;;;;;;18.37;17.47;;;;;;;;;;4958765;29;20464;-90
2021/12/28 13:04:37;;;;;;;18.77;17.87;;;;;;;;;;4960927;28;20483;-90
2021/12/28 13:07:05;;;;;;;18.10;17.30;;;;;;;;;;4960729;29;20842;-88
2021/12/28 13:09:33;;;;;;;19.50;18.30;;;;;;;;;;4959263;29;20478;-85
2021/12/28 13:12:02;;;;;;;21.47;20.27;;;;;;;;;;4958593;29;20457;-92
2021/12/28 13:14:30;;;;;;;22.07;20.57;;;;;;;;;;4957970;29;20500;-86
2021/12/28 13:16:59;;;;;;;22.60;21.20;;;;;;;;;;4957745;29;20505;-86
2021/12/28 13:19:27;;;;;;;21.80;20.30;;;;;;;;;;4957448;29;20414;-84
2021/12/28 13:21:58;;;;;;;20.63;19.43;;;;;;;;;;4956812;29;20447;-86
2021/12/28 13:24:26;;;;;;;19.93;18.53;;;;;;;;;;4957110;29;20450;-87
2021/12/28 13:26:54;;;;;;;20.80;19.70;;;;;;;;;;4957271;29;20442;-86
2021/12/28 13:29:26;;;;;;;21.37;19.50;;;;;;;;;;4957472;29;20422;-86
2021/12/28 13:31:54;;;;;;;22.47;20.90;;;;;;;;;;4957712;29;20883;-87
2021/12/28 13:34:23;;;;;;;20.87;19.57;;;;;;;;;;4945901;28;20426;-86
2021/12/28 13:36:50;;;;;;;20.80;19.53;;;;;;;;;;4938246;29;20946;-86
2021/12/28 13:39:18;;;;;;;21.33;19.67;;;;;;;;;;4938159;29;20525;-86
2021/12/28 13:41:50;;;;;;;20.07;18.70;;;;;;;;;;4937787;29;20926;-84
2021/12/28 13:44:17;;;;;;;20.53;19.23;;;;;;;;;;4938574;29;20882;-93
2021/12/28 13:46:45;;;;;;;20.70;19.30;;;;;;;;;;4938343;29;20945;-91
2021/12/28 13:49:14;;;;;;;21.70;20.50;;;;;;;;;;4938431;29;20486;-91
2021/12/28 13:51:43;;;;;;;19.70;18.60;;;;;;;;;;4938422;29;20533;-90
2021/12/28 13:54:11;;;;;;;19.70;18.70;;;;;;;;;;4938706;29;20830;-89
2021/12/28 13:56:41;;;;;;;20.00;18.87;;;;;;;;;;4938185;29;20823;-89
2021/12/28 13:59:09;;;;;;;20.40;19.10;;;;;;;;;;4937857;29;20438;-89
2021/12/28 14:01:41;;;;;;;20.83;19.60;;;;;;;;;;4938073;29;20459;-89
2021/12/28 14:04:09;;;;;;;19.33;18.10;;;;;;;;;;4938057;29;20921;-89
2021/12/28 14:06:38;;;;;;;20.50;19.50;;;;;;;;;;4938317;29;20516;-89
2021/12/28 14:09:08;;;;;;;20.23;19.03;;;;;;;;;;4938020;29;20549;-90
2021/12/28 14:11:38;;;;;;;20.87;19.50;;;;;;;;;;4937999;29;20455;-89
2021/12/28 14:14:13;;;;;;;21.07;19.53;;;;;;;;;;4937972;29;20433;-89
2021/12/28 14:16:52;;;;;;;20.60;19.47;;;;;;;;;;4941263;28;20565;-88
2021/12/28 14:19:19;;;;;;;21.47;20.27;;;;;;;;;;4956944;29;20454;-89
2021/12/28 14:21:47;;;;;;;22.63;21.33;;;;;;;;;;4957202;29;20440;-89
2021/12/28 14:24:16;;;;;;;23.27;22.07;;;;;;;;;;4956903;29;20477;-89